Time;durP1;ratioP1;P1;durP2;ratioP2;P2;SDS_P1;SDS_P2;PMS_P1;PMS_P2;Temp;Humidity;BMP_temperature;BMP_pressure;BME280_temperature;BME280_humidity;BME280_pressure;Samples;Min_cycle;Max_cycle;Signal;HPM_P1;HPM_P2
2022/02/17 00:00:09;;;;;;;40.80;5.00;;;;;;;10.60;90.06;99078.00;5034805;28;20029;-71
2022/02/17 00:02:34;;;;;;;27.15;4.30;;;;;;;10.52;90.97;99096.44;5052571;28;20025;-71
2022/02/17 00:05:00;;;;;;;25.58;3.75;;;;;;;10.45;90.71;99090.63;5034793;28;20051;-70
2022/02/17 00:07:25;;;;;;;23.10;3.65;;;;;;;10.61;88.77;99071.81;5034757;28;20059;-71
2022/02/17 00:09:50;;;;;;;23.17;3.88;;;;;;;10.66;88.64;99078.91;5052649;28;20028;-70
2022/02/17 00:12:16;;;;;;;29.88;4.78;;;;;;;10.70;88.86;99076.63;5052312;28;20036;-70
2022/02/17 00:14:41;;;;;;;25.02;3.60;;;;;;;10.69;88.36;99103.50;5034613;28;20502;-69
2022/02/17 00:17:06;;;;;;;30.00;4.00;;;;;;;10.68;88.28;99096.75;5034717;28;20017;-72
2022/02/17 00:19:31;;;;;;;31.98;4.55;;;;;;;10.67;89.21;99095.94;5034728;28;20117;-71
2022/02/17 00:21:57;;;;;;;36.85;4.63;;;;;;;10.60;88.67;99087.56;5034833;28;20037;-71
2022/02/17 00:24:22;;;;;;;22.70;4.03;;;;;;;10.46;90.03;99117.22;5034579;28;20024;-72
2022/02/17 00:26:47;;;;;;;34.10;5.40;;;;;;;10.48;89.16;99097.13;5052787;28;20464;-71
2022/02/17 00:29:13;;;;;;;26.17;4.03;;;;;;;10.45;89.20;99100.94;5034180;28;20021;-71
2022/02/17 00:31:39;;;;;;;22.73;4.20;;;;;;;10.52;88.04;99096.44;5052265;28;20040;-70
2022/02/17 00:34:05;;;;;;;33.67;4.57;;;;;;;10.46;89.31;99081.06;5017636;28;20431;-71
2022/02/17 00:36:31;;;;;;;26.88;3.67;;;;;;;10.51;89.04;99084.53;5034441;28;20032;-71
2022/02/17 00:38:57;;;;;;;27.80;4.00;;;;;;;10.56;87.71;99094.22;5052903;28;20032;-70
2022/02/17 00:41:24;;;;;;;28.98;4.43;;;;;;;10.58;87.90;99107.66;5052809;28;20021;-70
2022/02/17 00:43:50;;;;;;;31.45;3.92;;;;;;;10.57;88.25;99104.28;5052695;28;20078;-70
2022/02/17 00:46:15;;;;;;;22.90;3.85;;;;;;;10.57;88.51;99062.97;5035116;28;20035;-70
2022/02/17 00:48:41;;;;;;;24.85;3.55;;;;;;;10.56;87.29;99112.28;5053219;28;20096;-71
2022/02/17 00:51:06;;;;;;;21.02;3.15;;;;;;;10.55;86.29;99108.91;5056609;28;20075;-70
2022/02/17 00:53:31;;;;;;;22.95;3.30;;;;;;;10.44;86.48;99127.00;5038567;28;20032;-70
2022/02/17 00:55:56;;;;;;;18.65;3.20;;;;;;;10.37;85.58;99127.91;5065080;28;20472;-75
2022/02/17 00:58:22;;;;;;;26.65;3.47;;;;;;;10.27;85.09;99114.78;5071441;28;20032;-73
2022/02/17 01:00:47;;;;;;;21.05;3.50;;;;;;;10.08;84.40;99103.75;5071366;28;20499;-71
2022/02/17 01:03:12;;;;;;;23.55;3.60;;;;;;;10.13;84.46;99134.06;5053922;28;20021;-72
2022/02/17 01:05:38;;;;;;;28.70;3.92;;;;;;;10.18;83.08;99126.41;5054575;28;20051;-75
2022/02/17 01:08:04;;;;;;;26.65;3.50;;;;;;;10.07;80.36;99125.41;5053947;28;20033;-71
2022/02/17 01:10:29;;;;;;;23.60;4.13;;;;;;;9.97;81.31;99140.66;5055041;28;20027;-72
2022/02/17 01:12:55;;;;;;;20.70;4.03;;;;;;;9.75;82.97;99162.81;5054475;28;20127;-73
2022/02/17 01:15:20;;;;;;;23.70;3.38;;;;;;;9.83;80.23;99172.81;5064804;28;20083;-71
2022/02/17 01:17:46;;;;;;;24.20;3.47;;;;;;;9.73;80.66;99170.00;5039966;28;20036;-70
2022/02/17 01:20:11;;;;;;;22.23;2.92;;;;;;;9.66;80.42;99176.00;5039845;28;20025;-70
2022/02/17 01:22:36;;;;;;;16.95;2.65;;;;;;;9.73;80.01;99201.72;5040089;28;20036;-70
2022/02/17 01:25:03;;;;;;;21.75;2.95;;;;;;;9.67;79.66;99202.63;5023287;28;20033;-71
2022/02/17 01:27:28;;;;;;;15.55;2.25;;;;;;;9.69;80.40;99200.59;5039389;28;20044;-71
2022/02/17 01:29:53;;;;;;;14.40;2.33;;;;;;;9.63;81.38;99227.25;5056887;28;20025;-70
2022/02/17 01:32:19;;;;;;;17.15;2.47;;;;;;;9.72;80.23;99236.25;5056337;28;20083;-70
2022/02/17 01:34:44;;;;;;;17.85;2.70;;;;;;;9.55;81.45;99251.56;5056393;28;20025;-70
2022/02/17 01:37:10;;;;;;;25.35;2.75;;;;;;;9.61;80.72;99244.72;5037866;28;20028;-70
2022/02/17 01:39:36;;;;;;;22.98;3.90;;;;;;;9.61;79.66;99240.38;5037653;28;20024;-72
2022/02/17 01:42:05;;;;;;;14.20;2.80;;;;;;;9.62;78.15;99257.41;5037447;28;20025;-70
2022/02/17 01:44:32;;;;;;;18.42;2.67;;;;;;;9.54;78.80;99252.56;5036935;28;20029;-69
2022/02/17 01:46:58;;;;;;;18.40;2.88;;;;;;;9.51;78.85;99237.53;5055175;28;20052;-70
2022/02/17 01:49:23;;;;;;;22.30;3.50;;;;;;;9.56;78.54;99270.41;5037048;28;20124;-70
2022/02/17 01:51:48;;;;;;;28.13;3.17;;;;;;;9.51;80.16;99271.03;5054906;28;20161;-70
2022/02/17 01:54:14;;;;;;;22.70;2.90;;;;;;;9.38;80.38;99258.28;5036692;28;20025;-70
2022/02/17 01:56:41;;;;;;;25.92;3.08;;;;;;;9.45;79.98;99295.91;5054646;28;20432;-71
2022/02/17 01:59:08;;;;;;;19.77;3.53;;;;;;;9.49;79.00;99266.13;5054509;28;20038;-69
2022/02/17 02:01:34;;;;;;;27.13;4.30;;;;;;;9.51;78.76;99278.78;5054230;28;20059;-70
2022/02/17 02:04:00;;;;;;;22.40;3.17;;;;;;;9.56;78.20;99299.56;5036302;28;20060;-70
2022/02/17 02:06:25;;;;;;;24.92;3.42;;;;;;;9.55;78.72;99297.19;5054352;28;20048;-70
2022/02/17 02:08:51;;;;;;;24.48;3.70;;;;;;;9.51;78.72;99325.19;5054477;28;20029;-70
2022/02/17 02:11:17;;;;;;;20.25;3.10;;;;;;;9.56;78.18;99315.03;5054294;28;20132;-70
2022/02/17 02:13:42;;;;;;;23.65;3.60;;;;;;;9.58;78.01;99333.66;5054074;28;20163;-70
2022/02/17 02:16:07;;;;;;;25.33;3.38;;;;;;;9.44;80.24;99329.66;5036315;28;20108;-70
2022/02/17 02:18:33;;;;;;;20.77;3.42;;;;;;;9.38;80.96;99339.03;5054224;28;20025;-70
2022/02/17 02:20:59;;;;;;;18.52;3.30;;;;;;;9.49;80.47;99346.06;5036250;28;20024;-70
2022/02/17 02:23:25;;;;;;;17.15;3.53;;;;;;;9.53;79.92;99346.41;5036122;28;20021;-70
2022/02/17 02:25:51;;;;;;;19.33;3.05;;;;;;;9.57;79.76;99349.34;5054058;28;20102;-70
2022/02/17 02:28:23;;;;;;;18.73;2.97;;;;;;;9.67;79.52;99353.00;5036148;28;20100;-71
2022/02/17 02:30:49;;;;;;;21.60;3.40;;;;;;;9.71;79.46;99363.66;5036236;28;20037;-70
2022/02/17 02:33:15;;;;;;;24.17;2.88;;;;;;;9.38;80.29;99354.50;5036063;28;20031;-69
2022/02/17 02:35:41;;;;;;;22.48;3.17;;;;;;;9.63;78.54;99385.38;5053788;28;20025;-70
2022/02/17 02:38:07;;;;;;;24.08;3.47;;;;;;;9.65;78.86;99373.06;5053870;28;20135;-70
2022/02/17 02:40:33;;;;;;;20.23;3.10;;;;;;;9.66;76.43;99387.50;5035898;28;20024;-71
2022/02/17 02:42:58;;;;;;;21.17;3.25;;;;;;;9.58;75.67;99374.13;5035993;28;20028;-70
2022/02/17 02:45:23;;;;;;;19.60;3.03;;;;;;;9.55;75.13;99395.19;5053712;28;20056;-70
2022/02/17 02:47:48;;;;;;;23.10;3.30;;;;;;;9.44;74.10;99384.59;5036021;28;20025;-69
2022/02/17 02:50:14;;;;;;;23.63;3.17;;;;;;;9.28;74.20;99387.69;5053724;28;20025;-69
2022/02/17 02:52:39;;;;;;;19.33;3.53;;;;;;;9.24;74.62;99407.97;5053627;28;20108;-70
2022/02/17 02:55:05;;;;;;;21.65;3.20;;;;;;;9.29;74.87;99409.09;5053469;28;20392;-70
2022/02/17 02:57:30;;;;;;;28.05;3.60;;;;;;;9.20;74.50;99418.91;5053453;28;20017;-70
2022/02/17 02:59:55;;;;;;;24.60;3.35;;;;;;;9.34;75.62;99435.03;5035490;28;20029;-70
2022/02/17 03:02:21;;;;;;;23.20;3.83;;;;;;;9.28;75.75;99431.53;5035448;28;20095;-71
2022/02/17 03:04:46;;;;;;;27.23;3.63;;;;;;;9.34;74.78;99433.25;5053174;28;20492;-71
2022/02/17 03:07:11;;;;;;;30.58;4.97;;;;;;;9.34;75.62;99437.63;5035307;28;20074;-70
2022/02/17 03:09:37;;;;;;;23.77;3.33;;;;;;;9.21;75.04;99444.47;5035289;28;20033;-71
2022/02/17 03:12:02;;;;;;;23.15;3.13;;;;;;;9.13;75.37;99462.78;5052607;28;20032;-70
2022/02/17 03:14:28;;;;;;;30.27;3.88;;;;;;;9.06;74.12;99471.53;5035187;28;20051;-71
2022/02/17 03:16:53;;;;;;;22.90;3.60;;;;;;;9.15;72.59;99465.13;5035260;28;20537;-70
2022/02/17 03:19:21;;;;;;;26.00;4.00;;;;;;;8.97;73.00;99471.78;5053098;28;20029;-71
2022/02/17 03:21:46;;;;;;;22.38;3.08;;;;;;;8.96;73.69;99472.00;5053065;28;20040;-70
2022/02/17 03:24:11;;;;;;;22.90;2.97;;;;;;;8.86;73.44;99474.22;5052932;28;20408;-70
2022/02/17 03:26:37;;;;;;;18.88;3.38;;;;;;;8.93;71.98;99468.06;5035057;28;20029;-70
2022/02/17 03:29:03;;;;;;;29.30;3.33;;;;;;;8.82;72.28;99484.94;5053007;28;20036;-70
2022/02/17 03:31:29;;;;;;;27.40;3.25;;;;;;;8.80;71.66;99523.03;5052906;28;20029;-70
2022/02/17 03:33:54;;;;;;;22.50;3.20;;;;;;;8.78;71.59;99509.56;5052814;28;20430;-69
2022/02/17 03:36:19;;;;;;;22.05;3.03;;;;;;;8.65;73.09;99514.75;5035069;28;20029;-70
2022/02/17 03:38:44;;;;;;;29.67;4.15;;;;;;;8.73;71.83;99516.31;5034891;28;20120;-70
2022/02/17 03:41:10;;;;;;;31.42;3.70;;;;;;;8.74;72.36;99526.41;5034918;28;20075;-70
2022/02/17 03:43:35;;;;;;;27.45;3.60;;;;;;;8.68;73.44;99539.31;5053019;28;20017;-70
2022/02/17 03:46:01;;;;;;;26.95;4.32;;;;;;;8.75;71.39;99519.47;5034941;28;20369;-70
2022/02/17 03:48:26;;;;;;;24.55;3.55;;;;;;;8.72;72.12;99543.06;5034966;28;20108;-70
2022/02/17 03:50:51;;;;;;;25.30;3.80;;;;;;;8.73;71.34;99535.13;5035486;28;20442;-70
2022/02/17 03:53:16;;;;;;;17.17;3.40;;;;;;;8.66;72.21;99539.53;5034893;28;20025;-70
2022/02/17 03:55:42;;;;;;;22.48;4.22;;;;;;;8.68;72.34;99540.09;5052752;28;20509;-70
2022/02/17 03:58:07;;;;;;;25.05;4.05;;;;;;;8.67;73.44;99564.28;5052791;28;20059;-70
2022/02/17 04:00:33;;;;;;;24.33;3.63;;;;;;;8.69;73.51;99566.63;5034887;28;20424;-70
2022/02/17 04:03:01;;;;;;;23.92;4.07;;;;;;;8.71;72.92;99569.81;5034679;28;20025;-70
2022/02/17 04:05:27;;;;;;;28.90;4.22;;;;;;;8.67;73.13;99581.53;5052539;28;20112;-71
2022/02/17 04:07:52;;;;;;;19.77;3.70;;;;;;;8.75;73.41;99607.06;5052583;28;20533;-70
2022/02/17 04:10:17;;;;;;;26.35;4.35;;;;;;;8.79;73.89;99578.09;5052721;28;20123;-70
2022/02/17 04:12:42;;;;;;;22.15;3.60;;;;;;;8.80;74.08;99582.28;5052334;28;20565;-70
2022/02/17 04:15:10;;;;;;;23.13;3.65;;;;;;;8.90;73.25;99593.94;5052604;28;20151;-70
2022/02/17 04:17:35;;;;;;;22.15;3.95;;;;;;;8.95;73.43;99627.59;5034561;28;20115;-70
2022/02/17 04:20:02;;;;;;;22.52;3.63;;;;;;;8.92;73.43;99620.25;5034606;28;20462;-70
2022/02/17 04:22:27;;;;;;;26.70;3.47;;;;;;;8.97;73.38;99628.97;5034603;28;20049;-70
2022/02/17 04:24:52;;;;;;;28.88;4.30;;;;;;;8.86;73.87;99623.66;5055335;28;20076;-71
2022/02/17 04:27:18;;;;;;;20.58;3.70;;;;;;;8.81;74.58;99627.63;5056257;28;20032;-70
2022/02/17 04:29:43;;;;;;;33.25;4.05;;;;;;;8.94;73.05;99623.44;5038324;28;20108;-70
2022/02/17 04:32:09;;;;;;;22.63;3.53;;;;;;;8.93;72.72;99656.13;5038392;28;20025;-70
2022/02/17 04:34:35;;;;;;;20.25;3.55;;;;;;;8.89;73.02;99659.31;5038230;28;20009;-70
2022/02/17 04:37:00;;;;;;;25.42;3.92;;;;;;;8.80;73.35;99646.69;5056188;28;20043;-70
2022/02/17 04:39:25;;;;;;;24.13;3.25;;;;;;;8.81;72.47;99666.28;5038087;28;20108;-70
2022/02/17 04:44:34;;;;;;;23.27;3.72;;;;;;;8.75;73.96;99695.44;5057001;28;20040;-69
2022/02/17 04:47:00;;;;;;;17.95;3.58;;;;;;;8.69;73.99;99677.38;5059932;28;20048;-69
2022/02/17 04:49:25;;;;;;;25.33;3.72;;;;;;;8.72;73.72;99690.69;5041818;28;20029;-70
2022/02/17 04:51:50;;;;;;;21.40;3.45;;;;;;;8.81;72.70;99689.47;5046079;28;20108;-70
2022/02/17 04:54:16;;;;;;;21.52;3.10;;;;;;;8.81;73.30;99694.63;5045374;28;20117;-69
2022/02/17 04:56:41;;;;;;;20.75;3.53;;;;;;;8.83;71.18;99696.97;5041461;28;20041;-70
2022/02/17 04:59:07;;;;;;;17.35;3.13;;;;;;;8.85;72.05;99707.88;5055894;28;20418;-69
2022/02/17 05:01:32;;;;;;;25.17;3.70;;;;;;;8.79;72.27;99704.31;5055781;28;20029;-70
2022/02/17 05:03:57;;;;;;;19.50;3.50;;;;;;;8.72;74.10;99731.91;5036805;28;20432;-70
2022/02/17 05:06:23;;;;;;;28.13;4.50;;;;;;;8.58;77.84;99740.63;5056000;28;20043;-70
2022/02/17 05:08:48;;;;;;;25.05;3.92;;;;;;;8.43;77.29;99756.28;5055734;28;20021;-70
2022/02/17 05:11:13;;;;;;;18.23;3.05;;;;;;;8.35;78.00;99764.16;5037714;28;20456;-70
2022/02/17 05:13:39;;;;;;;32.80;4.65;;;;;;;8.34;77.65;99760.78;5037738;28;20110;-69
2022/02/17 05:16:05;;;;;;;23.38;3.58;;;;;;;8.36;76.30;99763.94;5038016;28;20017;-71
2022/02/17 05:18:30;;;;;;;14.00;2.80;;;;;;;8.36;73.38;99770.88;5037974;28;20025;-70
2022/02/17 05:20:56;;;;;;;16.40;3.05;;;;;;;8.32;73.50;99782.56;5056299;28;20021;-70
2022/02/17 05:23:21;;;;;;;17.88;2.60;;;;;;;8.34;73.04;99780.56;5044511;28;20029;-70
2022/02/17 05:25:47;;;;;;;13.73;2.30;;;;;;;8.19;73.93;99798.75;5046022;28;20021;-70
2022/02/17 05:28:12;;;;;;;14.55;2.40;;;;;;;8.13;73.63;99781.53;5063036;28;20229;-70
2022/02/17 05:30:40;;;;;;;17.73;2.33;;;;;;;8.09;74.66;99788.06;5039016;28;20491;-70
2022/02/17 05:33:07;;;;;;;15.30;3.15;;;;;;;8.08;75.08;99794.97;5055591;28;20025;-70
2022/02/17 05:35:33;;;;;;;13.18;1.70;;;;;;;8.07;74.60;99810.63;5050045;28;20500;-70
2022/02/17 05:37:58;;;;;;;15.68;2.75;;;;;;;8.00;74.67;99796.94;5055129;28;20035;-70
2022/02/17 05:40:23;;;;;;;9.48;1.77;;;;;;;7.90;73.62;99810.97;5037561;28;20033;-71
2022/02/17 05:42:48;;;;;;;15.70;2.20;;;;;;;7.89;75.26;99814.53;5037260;28;20055;-70
2022/02/17 05:45:14;;;;;;;11.52;2.03;;;;;;;7.81;75.42;99819.03;5055369;28;20387;-70
2022/02/17 05:47:41;;;;;;;10.98;2.05;;;;;;;7.79;74.14;99806.34;5062599;28;20025;-71
2022/02/17 05:50:07;;;;;;;13.65;2.33;;;;;;;7.72;74.32;99826.13;5039419;28;20104;-71
2022/02/17 05:52:32;;;;;;;9.60;1.70;;;;;;;7.82;73.02;99844.56;5055883;28;20029;-70
2022/02/17 05:54:58;;;;;;;14.23;2.45;;;;;;;7.79;73.82;99832.09;5041505;28;20020;-72
2022/02/17 05:57:23;;;;;;;12.80;1.90;;;;;;;7.81;72.71;99837.03;5056470;28;20024;-71
2022/02/17 05:59:48;;;;;;;12.05;1.92;;;;;;;7.84;73.66;99834.09;5040399;28;20502;-71
2022/02/17 06:02:14;;;;;;;16.08;2.10;;;;;;;7.87;73.07;99846.56;5054468;28;20108;-71
2022/02/17 06:04:43;;;;;;;18.50;2.78;;;;;;;7.84;73.47;99836.66;5035289;28;20488;-70
2022/02/17 06:07:13;;;;;;;24.48;3.58;;;;;;;7.93;74.03;99856.09;5036726;28;20025;-71
2022/02/17 06:09:41;;;;;;;21.42;2.90;;;;;;;7.97;75.95;99861.63;5036723;28;20495;-69
2022/02/17 06:12:07;;;;;;;20.50;3.53;;;;;;;7.93;76.01;99873.31;5036380;28;20024;-70
2022/02/17 06:14:32;;;;;;;20.23;2.95;;;;;;;7.95;75.22;99868.78;5036269;28;20049;-70
2022/02/17 06:16:57;;;;;;;25.30;2.92;;;;;;;7.90;75.62;99893.28;5036754;28;20105;-70
2022/02/17 06:19:23;;;;;;;25.65;3.65;;;;;;;7.93;73.70;99886.97;5054325;28;20024;-70
2022/02/17 06:21:48;;;;;;;19.42;3.03;;;;;;;7.98;73.46;99896.69;5054660;28;20408;-71
2022/02/17 06:24:13;;;;;;;24.05;3.00;;;;;;;7.96;72.92;99911.50;5053939;28;20112;-70
2022/02/17 06:26:38;;;;;;;20.15;3.50;;;;;;;8.00;72.05;99912.72;5053700;28;20028;-71
2022/02/17 06:29:04;;;;;;;11.60;2.25;;;;;;;8.01;72.59;99914.31;5053945;28;20032;-70
2022/02/17 06:31:31;;;;;;;21.15;2.63;;;;;;;7.97;72.20;99913.09;5036234;28;20029;-70
2022/02/17 06:33:57;;;;;;;21.70;2.72;;;;;;;7.95;71.31;99908.16;5036117;28;20017;-70
2022/02/17 06:36:23;;;;;;;13.15;2.42;;;;;;;8.01;72.19;99922.03;5035101;28;20115;-70
2022/02/17 06:38:48;;;;;;;13.75;2.53;;;;;;;8.03;72.30;99931.16;5034575;28;20610;-71
2022/02/17 06:41:17;;;;;;;16.92;2.78;;;;;;;8.07;72.61;99937.50;5052377;28;20064;-71
2022/02/17 06:43:42;;;;;;;22.00;2.65;;;;;;;8.09;71.49;99945.03;5052917;28;20494;-71
2022/02/17 06:46:08;;;;;;;23.58;3.17;;;;;;;8.11;72.93;99961.06;5052925;28;20108;-70
2022/02/17 06:48:33;;;;;;;16.05;2.35;;;;;;;8.05;71.38;99954.91;5051854;28;20403;-71
2022/02/17 06:50:58;;;;;;;17.73;2.83;;;;;;;7.99;71.16;99968.53;5034509;28;20234;-72
2022/02/17 06:53:23;;;;;;;11.38;2.38;;;;;;;8.06;70.03;99977.09;5053135;28;20531;-70
2022/02/17 06:55:49;;;;;;;14.75;2.78;;;;;;;8.02;69.17;99954.50;5035223;28;20029;-71
2022/02/17 06:58:16;;;;;;;13.55;2.60;;;;;;;8.02;70.48;99982.78;5053567;28;20032;-71
2022/02/17 07:00:44;;;;;;;19.27;2.35;;;;;;;8.00;69.83;99977.03;5035790;28;20021;-70
2022/02/17 07:03:10;;;;;;;14.27;2.50;;;;;;;7.96;68.88;99984.34;5035510;28;20025;-70
2022/02/17 07:05:35;;;;;;;15.15;2.42;;;;;;;8.05;67.22;99997.84;5053278;28;20074;-70
2022/02/17 07:08:00;;;;;;;12.98;2.30;;;;;;;8.08;66.05;99989.75;5035529;28;20123;-70
2022/02/17 07:13:10;;;;;;;15.70;2.05;;;;;;;7.90;65.61;100021.13;5053351;28;20091;-70
2022/02/17 07:15:36;;;;;;;10.57;2.00;;;;;;;7.97;64.26;100028.88;5035365;28;20020;-70
2022/02/17 07:18:04;;;;;;;16.40;3.47;;;;;;;7.94;64.70;100027.50;5053198;28;20032;-69
2022/02/17 07:20:30;;;;;;;10.23;2.08;;;;;;;7.89;64.92;100024.69;5053326;28;20032;-69
2022/02/17 07:22:56;;;;;;;10.25;2.20;;;;;;;8.00;65.09;100056.78;5035387;28;20472;-69
2022/02/17 07:25:21;;;;;;;16.55;2.28;;;;;;;8.11;62.35;100064.00;5053167;28;20033;-71
2022/02/17 07:27:46;;;;;;;15.95;2.75;;;;;;;8.01;65.22;100063.56;5053158;28;20491;-71
2022/02/17 07:30:12;;;;;;;19.88;2.30;;;;;;;8.06;64.56;100077.44;5035240;28;20047;-71
2022/02/17 07:32:40;;;;;;;12.55;2.05;;;;;;;8.18;63.66;100074.34;5035252;28;20388;-71
2022/02/17 07:35:06;;;;;;;17.90;2.35;;;;;;;8.23;65.41;100103.69;5035184;28;20013;-70
2022/02/17 07:37:31;;;;;;;11.02;2.15;;;;;;;8.16;65.25;100095.13;5053087;28;20388;-71
2022/02/17 07:39:56;;;;;;;13.95;2.03;;;;;;;8.09;65.53;100095.09;5036684;28;20024;-72
2022/02/17 07:42:22;;;;;;;12.77;2.33;;;;;;;8.07;65.65;100109.13;5036439;28;20016;-72
2022/02/17 07:44:47;;;;;;;9.48;1.70;;;;;;;8.04;64.07;100099.19;5037512;28;20039;-70
2022/02/17 07:47:15;;;;;;;11.27;2.10;;;;;;;8.24;62.62;100120.72;5034868;28;20029;-73
2022/02/17 07:49:40;;;;;;;13.05;1.95;;;;;;;8.32;62.66;100117.22;5033852;28;20029;-71
2022/02/17 07:52:06;;;;;;;10.23;2.28;;;;;;;8.71;61.72;100126.97;5032001;28;20056;-70
2022/02/17 07:54:31;;;;;;;14.73;2.25;;;;;;;8.49;62.97;100134.00;5050677;28;20025;-72
2022/02/17 07:56:58;;;;;;;18.52;2.25;;;;;;;8.25;64.18;100132.59;5032656;28;20112;-72
2022/02/17 07:59:24;;;;;;;14.10;2.08;;;;;;;8.17;65.07;100132.75;5053277;28;20036;-72
2022/02/17 08:01:49;;;;;;;11.27;1.98;;;;;;;8.19;66.62;100153.94;5037449;28;20037;-72
2022/02/17 08:04:14;;;;;;;14.95;2.55;;;;;;;8.26;66.91;100156.59;5038753;28;20074;-70
2022/02/17 08:06:43;;;;;;;13.50;2.20;;;;;;;8.20;66.49;100140.13;5056494;28;20106;-73
2022/02/17 08:09:08;;;;;;;12.10;2.00;;;;;;;8.27;67.98;100171.03;5038692;28;20032;-71
2022/02/17 08:11:33;;;;;;;19.17;3.50;;;;;;;8.53;66.17;100170.47;5056103;28;20464;-72
2022/02/17 08:13:59;;;;;;;10.77;2.40;;;;;;;8.59;66.04;100170.50;5056069;28;20037;-71
2022/02/17 08:16:24;;;;;;;12.85;2.10;;;;;;;8.34;66.08;100184.75;5056904;28;20053;-72
2022/02/17 08:18:49;;;;;;;16.45;2.50;;;;;;;8.27;67.84;100192.44;5056484;28;20029;-72
2022/02/17 08:21:15;;;;;;;18.45;2.67;;;;;;;8.30;66.50;100192.06;5056548;28;20441;-72
2022/02/17 08:23:40;;;;;;;19.90;2.20;;;;;;;8.46;64.57;100209.06;5038075;28;20021;-72
2022/02/17 08:26:05;;;;;;;18.33;2.65;;;;;;;8.88;64.89;100202.19;5038266;28;20021;-71
2022/02/17 08:28:31;;;;;;;14.73;1.98;;;;;;;8.65;63.70;100197.28;5056434;28;20032;-72
2022/02/17 08:30:56;;;;;;;19.05;2.20;;;;;;;8.51;65.26;100206.69;5038551;28;20033;-71
2022/02/17 08:33:21;;;;;;;11.07;1.98;;;;;;;8.62;63.27;100212.31;5055494;28;20383;-72
2022/02/17 08:35:47;;;;;;;14.55;2.10;;;;;;;9.27;61.55;100221.44;5038347;28;20025;-73
2022/02/17 08:38:12;;;;;;;14.18;2.97;;;;;;;8.85;61.12;100224.97;5037582;28;20037;-72
2022/02/17 08:40:38;;;;;;;20.80;2.47;;;;;;;8.78;63.21;100225.72;5036994;28;20025;-71
2022/02/17 08:43:09;;;;;;;14.48;2.53;;;;;;;8.61;63.18;100221.03;5055261;28;20391;-72
2022/02/17 08:45:40;;;;;;;13.55;2.00;;;;;;;8.63;61.70;100243.06;5054904;28;20498;-73
2022/02/17 08:48:06;;;;;;;13.38;1.88;;;;;;;8.63;61.08;100250.78;5053820;28;20032;-73
2022/02/17 08:50:33;;;;;;;20.90;2.25;;;;;;;8.66;64.11;100234.97;5035886;28;20021;-72
2022/02/17 08:52:58;;;;;;;15.02;2.28;;;;;;;8.86;62.58;100260.84;5054085;28;20413;-73
2022/02/17 08:55:23;;;;;;;8.25;1.67;;;;;;;9.29;62.45;100252.94;5056772;28;20086;-73
2022/02/17 08:57:51;;;;;;;10.35;2.10;;;;;;;9.25;61.85;100260.28;5054611;28;20028;-72
2022/02/17 09:00:17;;;;;;;15.55;2.20;;;;;;;9.14;61.59;100278.06;5054664;28;20065;-72
2022/02/17 09:02:42;;;;;;;16.15;2.13;;;;;;;9.14;61.41;100284.00;5054106;28;20084;-72
2022/02/17 09:05:08;;;;;;;13.93;2.72;;;;;;;8.89;61.20;100281.09;5037650;28;20033;-71
2022/02/17 09:07:33;;;;;;;16.20;2.35;;;;;;;9.16;59.82;100294.16;5055800;28;20481;-72
2022/02/17 09:09:58;;;;;;;19.23;2.50;;;;;;;9.36;58.79;100299.41;5037457;28;20024;-71
2022/02/17 09:12:32;;;;;;;14.02;2.20;;;;;;;9.56;59.38;100307.25;5037332;28;20056;-73
2022/02/17 09:14:57;;;;;;;19.70;2.38;;;;;;;13.06;50.33;100306.66;5054472;28;20082;-71
2022/02/17 09:17:23;;;;;;;13.57;2.30;;;;;;;13.39;48.51;100308.13;5055399;28;20434;-72
2022/02/17 09:19:48;;;;;;;10.88;2.10;;;;;;;13.41;46.17;100300.94;5055398;28;20021;-71
2022/02/17 09:22:13;;;;;;;30.65;2.58;;;;;;;13.03;48.95;100333.03;5037499;28;20151;-71
2022/02/17 09:24:39;;;;;;;16.35;2.30;;;;;;;13.45;48.69;100327.25;5037394;28;20040;-73
2022/02/17 09:27:05;;;;;;;15.48;2.30;;;;;;;14.08;45.66;100342.47;5037397;28;20035;-73
2022/02/17 09:29:30;;;;;;;12.98;2.42;;;;;;;14.14;46.15;100331.19;5037355;28;20107;-72
2022/02/17 09:31:56;;;;;;;13.27;2.58;;;;;;;15.99;43.89;100343.84;5037749;28;20108;-77
2022/02/17 09:34:21;;;;;;;12.93;2.65;;;;;;;15.23;43.43;100340.50;5056210;28;20035;-72
2022/02/17 09:36:46;;;;;;;15.23;2.70;;;;;;;16.39;41.48;100369.06;5034606;28;20391;-73
2022/02/17 09:39:12;;;;;;;11.02;2.65;;;;;;;14.64;42.43;100345.69;5034628;28;20491;-72
2022/02/17 09:41:37;;;;;;;13.60;2.40;;;;;;;16.01;41.43;100367.88;5034144;28;20033;-74
2022/02/17 09:44:07;;;;;;;10.55;2.20;;;;;;;14.97;43.64;100378.97;5035471;28;20028;-74
2022/02/17 09:46:33;;;;;;;11.57;2.63;;;;;;;16.78;40.10;100372.59;5053516;28;20025;-76
2022/02/17 09:49:01;;;;;;;12.68;2.55;;;;;;;13.85;46.89;100366.53;5056280;28;20028;-73
2022/02/17 09:51:29;;;;;;;11.48;2.33;;;;;;;17.18;39.76;100399.56;5052959;28;20017;-73
2022/02/17 09:53:55;;;;;;;10.23;2.60;;;;;;;13.06;48.69;100366.31;5053049;28;20100;-72
2022/02/17 09:56:23;;;;;;;12.43;2.35;;;;;;;12.77;49.00;100369.53;5053420;28;20490;-72
2022/02/17 09:58:50;;;;;;;12.55;2.58;;;;;;;14.88;44.96;100383.72;5036766;28;20108;-73
2022/02/17 10:01:26;;;;;;;9.05;2.40;;;;;;;15.58;44.58;100369.09;5036731;28;20025;-73
2022/02/17 10:04:12;;;;;;;8.32;2.33;;;;;;;16.50;41.89;100386.47;5054561;28;20021;-72
2022/02/17 10:06:47;;;;;;;10.73;2.63;;;;;;;17.12;40.59;100385.63;5033984;28;20021;-72
2022/02/17 10:09:13;;;;;;;13.38;2.80;;;;;;;18.11;38.66;100395.22;5052788;28;20025;-73
2022/02/17 10:11:40;;;;;;;12.07;2.72;;;;;;;14.81;44.54;100413.44;5036011;28;20024;-73
2022/02/17 10:14:12;;;;;;;11.73;2.53;;;;;;;18.25;37.98;100409.47;5034447;28;20124;-73
2022/02/17 10:16:54;;;;;;;9.27;2.42;;;;;;;15.30;40.77;100421.88;5054924;28;20372;-73
2022/02/17 10:19:22;;;;;;;10.93;2.65;;;;;;;16.29;40.78;100424.44;5054112;28;20384;-72
2022/02/17 10:21:47;;;;;;;11.95;2.53;;;;;;;17.96;38.94;100429.06;5035313;28;20063;-73
2022/02/17 10:24:52;;;;;;;12.20;2.33;;;;;;;17.62;37.17;100441.41;5052888;28;20033;-74
2022/02/17 10:27:21;;;;;;;10.95;2.53;;;;;;;15.12;41.59;100441.78;5054086;28;20025;-73
2022/02/17 10:30:09;;;;;;;14.88;2.42;;;;;;;18.71;34.55;100461.47;5036169;28;20391;-73
2022/02/17 10:32:51;;;;;;;8.82;2.50;;;;;;;18.54;35.65;100453.72;5036105;28;20353;-72
2022/02/17 10:35:18;;;;;;;10.77;2.72;;;;;;;16.83;36.96;100463.19;5036031;28;20047;-73
2022/02/17 10:37:51;;;;;;;14.35;2.53;;;;;;;18.68;35.06;100477.66;5052836;28;20028;-72
2022/02/17 10:40:19;;;;;;;12.27;2.30;;;;;;;18.89;34.06;100461.09;5054326;28;20040;-73
2022/02/17 10:43:09;;;;;;;12.20;2.45;;;;;;;19.18;33.74;100479.13;5035869;28;20029;-73
2022/02/17 10:45:35;;;;;;;12.57;2.60;;;;;;;18.87;34.14;100475.47;5053278;28;20025;-72
2022/02/17 10:48:12;;;;;;;12.55;2.42;;;;;;;19.07;33.36;100469.63;5034900;28;20036;-72
2022/02/17 10:50:38;;;;;;;13.60;2.22;;;;;;;18.39;35.38;100475.28;5035848;28;20121;-71
2022/02/17 10:53:15;;;;;;;12.48;2.47;;;;;;;19.28;32.73;100483.69;5052776;28;20487;-74
2022/02/17 10:55:51;;;;;;;12.50;2.38;;;;;;;19.73;32.26;100509.38;5053651;28;20049;-73
2022/02/17 10:58:16;;;;;;;13.63;2.53;;;;;;;18.64;34.36;100523.66;5035637;28;20044;-73
2022/02/17 11:00:43;;;;;;;9.43;2.22;;;;;;;19.22;33.87;100508.22;5034829;28;20017;-72
2022/02/17 11:03:09;;;;;;;9.55;2.25;;;;;;;20.16;32.56;100496.97;5034604;28;20064;-72
2022/02/17 11:05:38;;;;;;;9.77;2.35;;;;;;;16.37;39.52;100489.25;5052124;28;20495;-74
2022/02/17 11:08:05;;;;;;;11.10;2.50;;;;;;;17.72;36.50;100509.47;5050444;28;20031;-74
2022/02/17 11:10:30;;;;;;;11.82;2.63;;;;;;;17.09;38.99;100520.03;5050006;28;20049;-73
2022/02/17 11:12:58;;;;;;;10.13;2.10;;;;;;;18.26;36.65;100518.28;5050073;28;20095;-73
2022/02/17 11:15:23;;;;;;;15.77;2.40;;;;;;;14.71;43.53;100518.03;5033032;28;20024;-72
2022/02/17 11:17:49;;;;;;;13.15;2.15;;;;;;;13.14;48.63;100501.94;5051997;28;20487;-73
2022/02/17 11:20:17;;;;;;;16.95;2.75;;;;;;;16.16;41.21;100508.91;5033760;28;20027;-72
2022/02/17 11:22:49;;;;;;;9.20;2.33;;;;;;;17.76;39.10;100502.75;5052574;28;20519;-73
2022/02/17 11:25:15;;;;;;;13.75;2.40;;;;;;;18.21;37.16;100514.81;5052658;28;20025;-74
2022/02/17 11:27:58;;;;;;;13.55;2.55;;;;;;;19.13;34.39;100515.75;5053260;28;20028;-73
2022/02/17 11:30:28;;;;;;;13.13;2.88;;;;;;;17.30;38.34;100539.44;5051930;28;20379;-73